sensor_id;sensor_type;location;lat;lon;timestamp;temperature;humidity
40622;DHT22;26324;52.040;11.528;2023-12-28T00:00:19;8.40;67.50
40622;DHT22;26324;52.040;11.528;2023-12-28T00:02:47;8.40;68.00
40622;DHT22;26324;52.040;11.528;2023-12-28T00:05:14;8.30;67.30
40622;DHT22;26324;52.040;11.528;2023-12-28T00:07:42;8.30;67.20
40622;DHT22;26324;52.040;11.528;2023-12-28T00:10:09;8.10;67.40
40622;DHT22;26324;52.040;11.528;2023-12-28T00:12:37;8.10;67.20
40622;DHT22;26324;52.040;11.528;2023-12-28T00:15:04;8.00;67.60
40622;DHT22;26324;52.040;11.528;2023-12-28T00:17:32;8.00;67.30
40622;DHT22;26324;52.040;11.528;2023-12-28T00:19:59;8.00;66.50
40622;DHT22;26324;52.040;11.528;2023-12-28T00:22:26;8.10;66.00
40622;DHT22;26324;52.040;11.528;2023-12-28T00:24:54;8.20;65.80
40622;DHT22;26324;52.040;11.528;2023-12-28T00:27:21;8.30;65.10
40622;DHT22;26324;52.040;11.528;2023-12-28T00:29:48;8.30;64.70
40622;DHT22;26324;52.040;11.528;2023-12-28T00:32:16;8.30;65.30
40622;DHT22;26324;52.040;11.528;2023-12-28T00:34:43;8.30;64.60
40622;DHT22;26324;52.040;11.528;2023-12-28T00:37:10;8.40;63.30
40622;DHT22;26324;52.040;11.528;2023-12-28T00:39:38;8.60;62.70
40622;DHT22;26324;52.040;11.528;2023-12-28T00:42:06;8.60;61.20
40622;DHT22;26324;52.040;11.528;2023-12-28T00:44:34;8.80;60.70
40622;DHT22;26324;52.040;11.528;2023-12-28T00:47:01;8.80;60.80
40622;DHT22;26324;52.040;11.528;2023-12-28T00:49:28;8.90;60.10
40622;DHT22;26324;52.040;11.528;2023-12-28T00:51:56;9.10;59.70
40622;DHT22;26324;52.040;11.528;2023-12-28T00:54:23;9.10;59.10
40622;DHT22;26324;52.040;11.528;2023-12-28T00:56:50;9.20;58.10
40622;DHT22;26324;52.040;11.528;2023-12-28T00:59:18;9.20;58.10
40622;DHT22;26324;52.040;11.528;2023-12-28T01:01:45;9.20;58.00
40622;DHT22;26324;52.040;11.528;2023-12-28T01:04:13;9.20;57.80
40622;DHT22;26324;52.040;11.528;2023-12-28T01:06:41;9.20;57.60
40622;DHT22;26324;52.040;11.528;2023-12-28T01:09:08;9.20;57.70
40622;DHT22;26324;52.040;11.528;2023-12-28T01:11:36;9.30;57.40
40622;DHT22;26324;52.040;11.528;2023-12-28T01:14:03;9.20;57.60
40622;DHT22;26324;52.040;11.528;2023-12-28T01:16:30;9.10;58.30
40622;DHT22;26324;52.040;11.528;2023-12-28T01:18:58;9.10;57.80
40622;DHT22;26324;52.040;11.528;2023-12-28T01:21:25;9.10;57.60
40622;DHT22;26324;52.040;11.528;2023-12-28T01:23:53;9.10;57.60
40622;DHT22;26324;52.040;11.528;2023-12-28T01:26:21;9.20;57.20
40622;DHT22;26324;52.040;11.528;2023-12-28T01:28:48;9.30;57.90
40622;DHT22;26324;52.040;11.528;2023-12-28T01:31:16;9.20;58.30
40622;DHT22;26324;52.040;11.528;2023-12-28T01:33:43;9.20;57.50
40622;DHT22;26324;52.040;11.528;2023-12-28T01:36:20;9.30;56.40
40622;DHT22;26324;52.040;11.528;2023-12-28T01:38:48;9.40;55.00
40622;DHT22;26324;52.040;11.528;2023-12-28T01:41:16;9.50;55.30
40622;DHT22;26324;52.040;11.528;2023-12-28T01:43:43;9.50;55.80
40622;DHT22;26324;52.040;11.528;2023-12-28T01:46:16;9.50;56.30
40622;DHT22;26324;52.040;11.528;2023-12-28T01:48:45;9.40;57.20
40622;DHT22;26324;52.040;11.528;2023-12-28T01:51:14;9.30;56.80
40622;DHT22;26324;52.040;11.528;2023-12-28T01:53:43;9.30;57.40
40622;DHT22;26324;52.040;11.528;2023-12-28T01:56:11;9.30;57.90
40622;DHT22;26324;52.040;11.528;2023-12-28T01:58:40;9.20;58.00
40622;DHT22;26324;52.040;11.528;2023-12-28T02:01:09;9.20;58.80
40622;DHT22;26324;52.040;11.528;2023-12-28T02:03:37;9.10;58.70
40622;DHT22;26324;52.040;11.528;2023-12-28T02:06:07;9.10;59.30
40622;DHT22;26324;52.040;11.528;2023-12-28T02:08:34;9.10;58.80
40622;DHT22;26324;52.040;11.528;2023-12-28T02:11:01;9.20;59.00
40622;DHT22;26324;52.040;11.528;2023-12-28T02:13:29;9.30;58.80
40622;DHT22;26324;52.040;11.528;2023-12-28T02:16:26;9.40;58.30
40622;DHT22;26324;52.040;11.528;2023-12-28T02:18:57;9.60;58.30
40622;DHT22;26324;52.040;11.528;2023-12-28T02:21:27;9.60;57.70
40622;DHT22;26324;52.040;11.528;2023-12-28T02:23:55;9.70;57.60
40622;DHT22;26324;52.040;11.528;2023-12-28T02:26:22;9.70;57.70
40622;DHT22;26324;52.040;11.528;2023-12-28T02:28:49;9.80;58.10
40622;DHT22;26324;52.040;11.528;2023-12-28T02:31:32;9.80;58.30
40622;DHT22;26324;52.040;11.528;2023-12-28T02:34:12;9.80;58.10
40622;DHT22;26324;52.040;11.528;2023-12-28T02:36:44;9.80;59.10
40622;DHT22;26324;52.040;11.528;2023-12-28T02:39:14;9.80;60.30
40622;DHT22;26324;52.040;11.528;2023-12-28T02:41:44;9.70;60.90
40622;DHT22;26324;52.040;11.528;2023-12-28T02:44:14;9.70;61.40
40622;DHT22;26324;52.040;11.528;2023-12-28T02:46:41;9.80;62.20
40622;DHT22;26324;52.040;11.528;2023-12-28T02:49:09;9.70;62.90
40622;DHT22;26324;52.040;11.528;2023-12-28T02:51:39;9.70;63.70
40622;DHT22;26324;52.040;11.528;2023-12-28T02:54:07;9.70;64.30
40622;DHT22;26324;52.040;11.528;2023-12-28T02:56:34;9.70;64.70
40622;DHT22;26324;52.040;11.528;2023-12-28T02:59:03;9.60;65.40
40622;DHT22;26324;52.040;11.528;2023-12-28T03:01:30;9.60;66.00
40622;DHT22;26324;52.040;11.528;2023-12-28T03:03:58;9.70;66.80
40622;DHT22;26324;52.040;11.528;2023-12-28T03:06:25;9.70;67.80
40622;DHT22;26324;52.040;11.528;2023-12-28T03:08:52;9.80;68.50
40622;DHT22;26324;52.040;11.528;2023-12-28T03:11:20;9.80;69.10
40622;DHT22;26324;52.040;11.528;2023-12-28T03:13:47;9.90;69.60
40622;DHT22;26324;52.040;11.528;2023-12-28T03:16:15;9.80;70.10
40622;DHT22;26324;52.040;11.528;2023-12-28T03:18:42;9.90;70.30
40622;DHT22;26324;52.040;11.528;2023-12-28T03:21:10;9.80;70.70
40622;DHT22;26324;52.040;11.528;2023-12-28T03:23:37;9.90;70.70
40622;DHT22;26324;52.040;11.528;2023-12-28T03:26:05;9.90;70.40
40622;DHT22;26324;52.040;11.528;2023-12-28T03:28:34;9.90;70.30
40622;DHT22;26324;52.040;11.528;2023-12-28T03:31:26;9.90;70.30
40622;DHT22;26324;52.040;11.528;2023-12-28T03:33:55;9.90;70.50
40622;DHT22;26324;52.040;11.528;2023-12-28T03:36:22;9.80;70.50
40622;DHT22;26324;52.040;11.528;2023-12-28T03:38:52;9.80;71.10
40622;DHT22;26324;52.040;11.528;2023-12-28T03:41:20;9.80;71.40
40622;DHT22;26324;52.040;11.528;2023-12-28T03:43:49;9.80;71.70
40622;DHT22;26324;52.040;11.528;2023-12-28T03:46:16;9.90;71.60
40622;DHT22;26324;52.040;11.528;2023-12-28T03:48:43;9.80;71.70
40622;DHT22;26324;52.040;11.528;2023-12-28T03:51:15;9.90;71.40
40622;DHT22;26324;52.040;11.528;2023-12-28T03:53:42;10.00;71.20
40622;DHT22;26324;52.040;11.528;2023-12-28T03:56:24;10.00;71.30
40622;DHT22;26324;52.040;11.528;2023-12-28T03:58:54;10.00;71.20
40622;DHT22;26324;52.040;11.528;2023-12-28T04:01:22;9.90;71.60
40622;DHT22;26324;52.040;11.528;2023-12-28T04:03:50;9.90;71.90
40622;DHT22;26324;52.040;11.528;2023-12-28T04:06:17;9.90;71.80
40622;DHT22;26324;52.040;11.528;2023-12-28T04:08:45;9.90;71.70
40622;DHT22;26324;52.040;11.528;2023-12-28T04:11:12;9.90;72.00
40622;DHT22;26324;52.040;11.528;2023-12-28T04:13:39;9.80;72.50
40622;DHT22;26324;52.040;11.528;2023-12-28T04:16:07;9.80;72.50
40622;DHT22;26324;52.040;11.528;2023-12-28T04:18:37;9.70;72.90
40622;DHT22;26324;52.040;11.528;2023-12-28T04:21:08;9.70;73.20
40622;DHT22;26324;52.040;11.528;2023-12-28T04:23:36;9.70;73.30
40622;DHT22;26324;52.040;11.528;2023-12-28T04:26:04;9.70;73.40
40622;DHT22;26324;52.040;11.528;2023-12-28T04:28:31;9.60;73.60
40622;DHT22;26324;52.040;11.528;2023-12-28T04:30:58;9.60;73.60
40622;DHT22;26324;52.040;11.528;2023-12-28T04:33:28;9.60;73.90
40622;DHT22;26324;52.040;11.528;2023-12-28T04:35:56;9.60;74.00
40622;DHT22;26324;52.040;11.528;2023-12-28T04:38:23;9.60;74.00
40622;DHT22;26324;52.040;11.528;2023-12-28T04:40:51;9.50;74.30
40622;DHT22;26324;52.040;11.528;2023-12-28T04:43:19;9.50;74.70
40622;DHT22;26324;52.040;11.528;2023-12-28T04:45:47;9.40;74.90
40622;DHT22;26324;52.040;11.528;2023-12-28T04:48:14;9.40;75.20
40622;DHT22;26324;52.040;11.528;2023-12-28T04:50:42;9.30;75.60
40622;DHT22;26324;52.040;11.528;2023-12-28T04:53:11;9.30;75.90
40622;DHT22;26324;52.040;11.528;2023-12-28T04:55:38;9.30;75.80
40622;DHT22;26324;52.040;11.528;2023-12-28T04:58:05;9.30;75.90
40622;DHT22;26324;52.040;11.528;2023-12-28T05:00:33;9.20;76.30
40622;DHT22;26324;52.040;11.528;2023-12-28T05:03:00;9.10;76.60
40622;DHT22;26324;52.040;11.528;2023-12-28T05:05:29;9.10;76.70
40622;DHT22;26324;52.040;11.528;2023-12-28T05:07:56;9.10;76.90
40622;DHT22;26324;52.040;11.528;2023-12-28T05:10:24;9.00;77.20
40622;DHT22;26324;52.040;11.528;2023-12-28T05:12:51;9.00;77.30
40622;DHT22;26324;52.040;11.528;2023-12-28T05:15:19;9.00;77.40
40622;DHT22;26324;52.040;11.528;2023-12-28T05:17:47;9.00;77.60
40622;DHT22;26324;52.040;11.528;2023-12-28T05:20:14;8.90;77.80
40622;DHT22;26324;52.040;11.528;2023-12-28T05:22:42;8.90;78.10
40622;DHT22;26324;52.040;11.528;2023-12-28T05:25:09;8.90;78.00
40622;DHT22;26324;52.040;11.528;2023-12-28T05:27:36;8.90;78.20
40622;DHT22;26324;52.040;11.528;2023-12-28T05:30:04;8.90;78.10
40622;DHT22;26324;52.040;11.528;2023-12-28T05:32:32;8.90;78.10
40622;DHT22;26324;52.040;11.528;2023-12-28T05:34:59;8.80;78.20
40622;DHT22;26324;52.040;11.528;2023-12-28T05:37:26;8.90;78.20
40622;DHT22;26324;52.040;11.528;2023-12-28T05:39:54;8.90;78.10
40622;DHT22;26324;52.040;11.528;2023-12-28T05:42:21;8.90;78.00
40622;DHT22;26324;52.040;11.528;2023-12-28T05:44:48;9.00;77.90
40622;DHT22;26324;52.040;11.528;2023-12-28T05:47:16;8.90;77.90
40622;DHT22;26324;52.040;11.528;2023-12-28T05:49:43;8.90;78.00
40622;DHT22;26324;52.040;11.528;2023-12-28T05:52:10;8.90;77.90
40622;DHT22;26324;52.040;11.528;2023-12-28T05:54:38;8.90;77.90
40622;DHT22;26324;52.040;11.528;2023-12-28T05:57:05;8.90;77.80
40622;DHT22;26324;52.040;11.528;2023-12-28T05:59:32;9.00;77.60
40622;DHT22;26324;52.040;11.528;2023-12-28T06:01:59;9.00;77.40
40622;DHT22;26324;52.040;11.528;2023-12-28T06:04:27;9.00;77.60
40622;DHT22;26324;52.040;11.528;2023-12-28T06:06:55;9.00;77.60
40622;DHT22;26324;52.040;11.528;2023-12-28T06:09:22;9.00;77.60
40622;DHT22;26324;52.040;11.528;2023-12-28T06:11:50;9.00;77.50
40622;DHT22;26324;52.040;11.528;2023-12-28T06:14:17;9.10;77.30
40622;DHT22;26324;52.040;11.528;2023-12-28T06:16:44;9.10;77.10
40622;DHT22;26324;52.040;11.528;2023-12-28T06:19:11;9.10;77.00
40622;DHT22;26324;52.040;11.528;2023-12-28T06:21:39;9.10;77.00
40622;DHT22;26324;52.040;11.528;2023-12-28T06:24:09;9.10;77.00
40622;DHT22;26324;52.040;11.528;2023-12-28T06:26:44;9.10;76.90
40622;DHT22;26324;52.040;11.528;2023-12-28T06:29:11;9.00;77.20
40622;DHT22;26324;52.040;11.528;2023-12-28T06:31:38;9.00;77.30
40622;DHT22;26324;52.040;11.528;2023-12-28T06:34:07;9.00;77.30
40622;DHT22;26324;52.040;11.528;2023-12-28T06:36:35;8.90;77.30
40622;DHT22;26324;52.040;11.528;2023-12-28T06:39:02;8.80;77.50
40622;DHT22;26324;52.040;11.528;2023-12-28T06:41:31;8.80;77.70
40622;DHT22;26324;52.040;11.528;2023-12-28T06:43:58;8.80;77.70
40622;DHT22;26324;52.040;11.528;2023-12-28T06:46:25;8.80;77.80
40622;DHT22;26324;52.040;11.528;2023-12-28T06:48:53;8.70;77.90
40622;DHT22;26324;52.040;11.528;2023-12-28T06:51:21;8.60;78.00
40622;DHT22;26324;52.040;11.528;2023-12-28T06:53:49;8.60;78.10
40622;DHT22;26324;52.040;11.528;2023-12-28T06:56:17;8.80;77.90
40622;DHT22;26324;52.040;11.528;2023-12-28T06:58:45;8.80;77.60
40622;DHT22;26324;52.040;11.528;2023-12-28T07:01:12;8.80;77.50
40622;DHT22;26324;52.040;11.528;2023-12-28T07:03:40;8.80;77.30
40622;DHT22;26324;52.040;11.528;2023-12-28T07:06:08;8.80;77.30
40622;DHT22;26324;52.040;11.528;2023-12-28T07:08:36;8.80;77.30
40622;DHT22;26324;52.040;11.528;2023-12-28T07:11:04;8.90;77.40
40622;DHT22;26324;52.040;11.528;2023-12-28T07:13:32;8.90;77.20
40622;DHT22;26324;52.040;11.528;2023-12-28T07:15:59;8.80;77.30
40622;DHT22;26324;52.040;11.528;2023-12-28T07:18:31;8.90;77.30
40622;DHT22;26324;52.040;11.528;2023-12-28T07:20:59;8.90;77.20
40622;DHT22;26324;52.040;11.528;2023-12-28T07:23:27;8.90;77.10
40622;DHT22;26324;52.040;11.528;2023-12-28T07:25:54;8.90;77.20
40622;DHT22;26324;52.040;11.528;2023-12-28T07:28:22;8.90;77.10
40622;DHT22;26324;52.040;11.528;2023-12-28T07:30:49;8.90;77.10
40622;DHT22;26324;52.040;11.528;2023-12-28T07:33:17;8.90;77.10
40622;DHT22;26324;52.040;11.528;2023-12-28T07:35:44;8.80;77.20
40622;DHT22;26324;52.040;11.528;2023-12-28T07:38:11;8.90;77.00
40622;DHT22;26324;52.040;11.528;2023-12-28T07:40:39;8.80;77.00
40622;DHT22;26324;52.040;11.528;2023-12-28T07:43:06;8.90;76.90
40622;DHT22;26324;52.040;11.528;2023-12-28T07:45:34;8.80;76.90
40622;DHT22;26324;52.040;11.528;2023-12-28T07:48:02;8.90;76.60
40622;DHT22;26324;52.040;11.528;2023-12-28T07:50:31;8.90;76.70
40622;DHT22;26324;52.040;11.528;2023-12-28T07:52:58;8.90;76.90
40622;DHT22;26324;52.040;11.528;2023-12-28T07:55:25;8.80;76.70
40622;DHT22;26324;52.040;11.528;2023-12-28T07:57:53;8.90;76.80
40622;DHT22;26324;52.040;11.528;2023-12-28T08:00:21;8.80;76.60
40622;DHT22;26324;52.040;11.528;2023-12-28T08:02:48;8.90;76.60
40622;DHT22;26324;52.040;11.528;2023-12-28T08:05:16;8.80;76.80
40622;DHT22;26324;52.040;11.528;2023-12-28T08:07:43;8.80;76.80
40622;DHT22;26324;52.040;11.528;2023-12-28T08:10:10;8.70;76.90
40622;DHT22;26324;52.040;11.528;2023-12-28T08:12:38;8.80;76.80
40622;DHT22;26324;52.040;11.528;2023-12-28T08:15:05;8.70;76.90
40622;DHT22;26324;52.040;11.528;2023-12-28T08:17:33;8.80;76.80
40622;DHT22;26324;52.040;11.528;2023-12-28T08:20:00;8.80;76.80
40622;DHT22;26324;52.040;11.528;2023-12-28T08:22:28;8.80;76.70
40622;DHT22;26324;52.040;11.528;2023-12-28T08:24:55;8.80;76.60
40622;DHT22;26324;52.040;11.528;2023-12-28T08:27:23;8.90;76.40
40622;DHT22;26324;52.040;11.528;2023-12-28T08:29:50;8.90;76.30
40622;DHT22;26324;52.040;11.528;2023-12-28T08:32:17;8.90;76.30
40622;DHT22;26324;52.040;11.528;2023-12-28T08:34:46;8.90;76.30
40622;DHT22;26324;52.040;11.528;2023-12-28T08:37:15;8.90;76.40
40622;DHT22;26324;52.040;11.528;2023-12-28T08:39:42;9.00;76.20
40622;DHT22;26324;52.040;11.528;2023-12-28T08:42:09;8.90;76.40
40622;DHT22;26324;52.040;11.528;2023-12-28T08:44:37;9.10;76.00
40622;DHT22;26324;52.040;11.528;2023-12-28T08:47:04;9.10;75.50
40622;DHT22;26324;52.040;11.528;2023-12-28T08:49:32;9.10;75.50
40622;DHT22;26324;52.040;11.528;2023-12-28T08:52:03;9.10;75.30
40622;DHT22;26324;52.040;11.528;2023-12-28T08:54:31;9.10;75.20
40622;DHT22;26324;52.040;11.528;2023-12-28T08:56:58;9.10;75.40
40622;DHT22;26324;52.040;11.528;2023-12-28T08:59:26;9.10;75.40
40622;DHT22;26324;52.040;11.528;2023-12-28T09:01:54;9.10;75.30
40622;DHT22;26324;52.040;11.528;2023-12-28T09:04:22;9.30;75.00
40622;DHT22;26324;52.040;11.528;2023-12-28T09:06:49;9.20;75.00
40622;DHT22;26324;52.040;11.528;2023-12-28T09:09:17;9.20;74.80
40622;DHT22;26324;52.040;11.528;2023-12-28T09:11:44;9.30;74.90
40622;DHT22;26324;52.040;11.528;2023-12-28T09:14:11;9.20;74.90
40622;DHT22;26324;52.040;11.528;2023-12-28T09:16:38;9.20;74.70
40622;DHT22;26324;52.040;11.528;2023-12-28T09:19:07;9.20;74.70
40622;DHT22;26324;52.040;11.528;2023-12-28T09:21:35;9.30;74.60
40622;DHT22;26324;52.040;11.528;2023-12-28T09:24:03;9.30;74.50
40622;DHT22;26324;52.040;11.528;2023-12-28T09:26:30;9.20;74.80
40622;DHT22;26324;52.040;11.528;2023-12-28T09:28:58;9.10;75.30
40622;DHT22;26324;52.040;11.528;2023-12-28T09:31:26;9.10;75.40
40622;DHT22;26324;52.040;11.528;2023-12-28T09:33:54;9.10;75.30
40622;DHT22;26324;52.040;11.528;2023-12-28T09:36:21;9.20;75.10
40622;DHT22;26324;52.040;11.528;2023-12-28T09:38:48;9.30;75.40
40622;DHT22;26324;52.040;11.528;2023-12-28T09:41:16;9.30;74.80
40622;DHT22;26324;52.040;11.528;2023-12-28T09:43:58;9.40;75.20
40622;DHT22;26324;52.040;11.528;2023-12-28T09:46:27;9.40;74.90
40622;DHT22;26324;52.040;11.528;2023-12-28T09:48:55;9.50;74.70
40622;DHT22;26324;52.040;11.528;2023-12-28T09:51:25;9.70;74.20
40622;DHT22;26324;52.040;11.528;2023-12-28T09:53:53;9.90;73.70
40622;DHT22;26324;52.040;11.528;2023-12-28T09:56:20;9.80;73.60
40622;DHT22;26324;52.040;11.528;2023-12-28T09:58:50;10.00;73.20
40622;DHT22;26324;52.040;11.528;2023-12-28T10:01:18;10.10;72.90
40622;DHT22;26324;52.040;11.528;2023-12-28T10:03:46;10.30;72.30
40622;DHT22;26324;52.040;11.528;2023-12-28T10:06:14;10.50;71.90
40622;DHT22;26324;52.040;11.528;2023-12-28T10:08:47;10.70;70.70
40622;DHT22;26324;52.040;11.528;2023-12-28T10:11:19;10.80;70.50
40622;DHT22;26324;52.040;11.528;2023-12-28T10:13:47;10.90;69.60
40622;DHT22;26324;52.040;11.528;2023-12-28T10:16:15;10.90;69.70
40622;DHT22;26324;52.040;11.528;2023-12-28T10:18:43;11.10;69.60
40622;DHT22;26324;52.040;11.528;2023-12-28T10:21:12;11.10;69.50
40622;DHT22;26324;52.040;11.528;2023-12-28T10:23:40;11.30;68.90
40622;DHT22;26324;52.040;11.528;2023-12-28T10:26:08;11.20;68.90
40622;DHT22;26324;52.040;11.528;2023-12-28T10:28:36;11.20;68.20
40622;DHT22;26324;52.040;11.528;2023-12-28T10:31:08;11.20;68.20
40622;DHT22;26324;52.040;11.528;2023-12-28T10:33:36;11.10;68.60
40622;DHT22;26324;52.040;11.528;2023-12-28T10:36:07;11.10;68.90
40622;DHT22;26324;52.040;11.528;2023-12-28T10:38:37;11.20;68.20
40622;DHT22;26324;52.040;11.528;2023-12-28T10:41:08;11.50;67.30
40622;DHT22;26324;52.040;11.528;2023-12-28T10:43:52;11.60;66.10
40622;DHT22;26324;52.040;11.528;2023-12-28T10:46:26;11.90;66.20
40622;DHT22;26324;52.040;11.528;2023-12-28T10:48:59;12.10;65.40
40622;DHT22;26324;52.040;11.528;2023-12-28T10:51:27;12.40;64.30
40622;DHT22;26324;52.040;11.528;2023-12-28T10:57:01;12.50;64.00
40622;DHT22;26324;52.040;11.528;2023-12-28T10:59:54;12.60;64.00
40622;DHT22;26324;52.040;11.528;2023-12-28T11:02:28;12.30;64.80
40622;DHT22;26324;52.040;11.528;2023-12-28T11:05:00;12.00;65.30
40622;DHT22;26324;52.040;11.528;2023-12-28T11:07:30;11.60;66.90
40622;DHT22;26324;52.040;11.528;2023-12-28T11:10:05;11.50;67.40
40622;DHT22;26324;52.040;11.528;2023-12-28T11:12:34;11.50;68.50
40622;DHT22;26324;52.040;11.528;2023-12-28T11:15:04;11.60;67.60
40622;DHT22;26324;52.040;11.528;2023-12-28T11:17:35;11.80;67.40
40622;DHT22;26324;52.040;11.528;2023-12-28T11:20:05;12.00;66.80
40622;DHT22;26324;52.040;11.528;2023-12-28T11:22:33;12.40;65.20
40622;DHT22;26324;52.040;11.528;2023-12-28T11:25:01;12.80;64.80
40622;DHT22;26324;52.040;11.528;2023-12-28T11:27:35;12.90;63.70
40622;DHT22;26324;52.040;11.528;2023-12-28T11:30:03;13.30;62.80
40622;DHT22;26324;52.040;11.528;2023-12-28T11:32:36;13.40;62.20
40622;DHT22;26324;52.040;11.528;2023-12-28T11:35:06;13.30;62.30
40622;DHT22;26324;52.040;11.528;2023-12-28T11:37:38;13.50;61.10
40622;DHT22;26324;52.040;11.528;2023-12-28T11:40:11;13.50;61.00
40622;DHT22;26324;52.040;11.528;2023-12-28T11:42:51;13.50;61.10
40622;DHT22;26324;52.040;11.528;2023-12-28T11:45:20;13.60;60.60
40622;DHT22;26324;52.040;11.528;2023-12-28T11:48:01;13.60;59.70
40622;DHT22;26324;52.040;11.528;2023-12-28T11:50:31;13.60;59.80
40622;DHT22;26324;52.040;11.528;2023-12-28T11:52:58;13.60;60.60
40622;DHT22;26324;52.040;11.528;2023-12-28T11:55:26;13.40;60.10
40622;DHT22;26324;52.040;11.528;2023-12-28T11:57:54;13.50;60.00
40622;DHT22;26324;52.040;11.528;2023-12-28T12:00:23;13.30;59.60
40622;DHT22;26324;52.040;11.528;2023-12-28T12:02:52;13.10;60.90
40622;DHT22;26324;52.040;11.528;2023-12-28T12:05:20;13.00;61.90
40622;DHT22;26324;52.040;11.528;2023-12-28T12:07:49;12.80;61.80
40622;DHT22;26324;52.040;11.528;2023-12-28T12:10:17;12.80;62.00
40622;DHT22;26324;52.040;11.528;2023-12-28T12:12:44;13.30;61.20
40622;DHT22;26324;52.040;11.528;2023-12-28T12:15:12;13.00;61.40
40622;DHT22;26324;52.040;11.528;2023-12-28T12:17:39;13.10;61.00
40622;DHT22;26324;52.040;11.528;2023-12-28T12:20:08;13.30;61.30
40622;DHT22;26324;52.040;11.528;2023-12-28T12:22:36;13.50;60.90
40622;DHT22;26324;52.040;11.528;2023-12-28T12:25:05;13.30;60.00
40622;DHT22;26324;52.040;11.528;2023-12-28T12:27:34;13.00;61.40
40622;DHT22;26324;52.040;11.528;2023-12-28T12:30:02;12.60;61.80
40622;DHT22;26324;52.040;11.528;2023-12-28T12:32:30;12.60;62.80
40622;DHT22;26324;52.040;11.528;2023-12-28T12:34:59;13.20;61.10
40622;DHT22;26324;52.040;11.528;2023-12-28T12:37:26;13.60;59.80
40622;DHT22;26324;52.040;11.528;2023-12-28T12:39:54;14.20;59.20
40622;DHT22;26324;52.040;11.528;2023-12-28T12:42:22;14.40;57.70
40622;DHT22;26324;52.040;11.528;2023-12-28T12:44:49;14.50;57.00
40622;DHT22;26324;52.040;11.528;2023-12-28T12:47:17;14.40;57.70
40622;DHT22;26324;52.040;11.528;2023-12-28T12:49:44;14.30;57.20
40622;DHT22;26324;52.040;11.528;2023-12-28T12:52:12;14.60;57.00
40622;DHT22;26324;52.040;11.528;2023-12-28T12:54:40;15.00;55.50
40622;DHT22;26324;52.040;11.528;2023-12-28T12:57:07;15.00;56.30
40622;DHT22;26324;52.040;11.528;2023-12-28T12:59:34;14.80;56.20
40622;DHT22;26324;52.040;11.528;2023-12-28T13:02:02;13.80;58.40
40622;DHT22;26324;52.040;11.528;2023-12-28T13:04:29;13.10;60.70
40622;DHT22;26324;52.040;11.528;2023-12-28T13:06:56;12.60;62.40
40622;DHT22;26324;52.040;11.528;2023-12-28T13:09:24;12.30;63.30
40622;DHT22;26324;52.040;11.528;2023-12-28T13:11:52;12.00;64.20
40622;DHT22;26324;52.040;11.528;2023-12-28T13:14:19;11.90;64.80
40622;DHT22;26324;52.040;11.528;2023-12-28T13:16:47;11.90;65.40
40622;DHT22;26324;52.040;11.528;2023-12-28T13:19:23;11.90;65.40
40622;DHT22;26324;52.040;11.528;2023-12-28T13:21:50;11.90;65.70
40622;DHT22;26324;52.040;11.528;2023-12-28T13:24:18;11.90;65.10
40622;DHT22;26324;52.040;11.528;2023-12-28T13:26:45;12.10;64.60
40622;DHT22;26324;52.040;11.528;2023-12-28T13:29:12;12.50;63.40
40622;DHT22;26324;52.040;11.528;2023-12-28T13:31:40;12.80;62.70
40622;DHT22;26324;52.040;11.528;2023-12-28T13:34:08;13.20;61.10
40622;DHT22;26324;52.040;11.528;2023-12-28T13:36:36;13.80;59.30
40622;DHT22;26324;52.040;11.528;2023-12-28T13:39:04;14.30;58.30
40622;DHT22;26324;52.040;11.528;2023-12-28T13:41:32;14.70;56.10
40622;DHT22;26324;52.040;11.528;2023-12-28T13:43:59;14.60;55.90
40622;DHT22;26324;52.040;11.528;2023-12-28T13:46:31;14.30;56.60
40622;DHT22;26324;52.040;11.528;2023-12-28T13:48:58;13.90;57.20
40622;DHT22;26324;52.040;11.528;2023-12-28T13:51:26;13.90;57.80
40622;DHT22;26324;52.040;11.528;2023-12-28T13:53:54;13.70;58.20
40622;DHT22;26324;52.040;11.528;2023-12-28T13:56:21;13.40;59.30
40622;DHT22;26324;52.040;11.528;2023-12-28T13:58:49;13.40;58.80
40622;DHT22;26324;52.040;11.528;2023-12-28T14:01:16;13.10;60.00
40622;DHT22;26324;52.040;11.528;2023-12-28T14:03:43;12.90;60.60
40622;DHT22;26324;52.040;11.528;2023-12-28T14:06:16;12.80;61.20
40622;DHT22;26324;52.040;11.528;2023-12-28T14:08:43;12.80;61.20
40622;DHT22;26324;52.040;11.528;2023-12-28T14:11:10;12.80;61.40
40622;DHT22;26324;52.040;11.528;2023-12-28T14:13:38;12.80;61.20
40622;DHT22;26324;52.040;11.528;2023-12-28T14:16:05;12.60;61.00
40622;DHT22;26324;52.040;11.528;2023-12-28T14:18:33;12.50;62.00
40622;DHT22;26324;52.040;11.528;2023-12-28T14:21:01;12.20;62.40
40622;DHT22;26324;52.040;11.528;2023-12-28T14:23:28;12.10;63.20
40622;DHT22;26324;52.040;11.528;2023-12-28T14:25:56;11.90;63.80
40622;DHT22;26324;52.040;11.528;2023-12-28T14:28:24;11.80;64.40
40622;DHT22;26324;52.040;11.528;2023-12-28T14:30:53;11.60;64.80
40622;DHT22;26324;52.040;11.528;2023-12-28T14:33:21;11.50;64.90
40622;DHT22;26324;52.040;11.528;2023-12-28T14:35:49;11.50;64.90
40622;DHT22;26324;52.040;11.528;2023-12-28T14:38:16;11.40;65.10
40622;DHT22;26324;52.040;11.528;2023-12-28T14:40:44;11.30;65.50
40622;DHT22;26324;52.040;11.528;2023-12-28T14:43:11;11.30;65.90
40622;DHT22;26324;52.040;11.528;2023-12-28T14:45:38;11.20;65.70
40622;DHT22;26324;52.040;11.528;2023-12-28T14:48:06;11.10;66.30
40622;DHT22;26324;52.040;11.528;2023-12-28T14:50:33;11.10;66.30
40622;DHT22;26324;52.040;11.528;2023-12-28T14:53:02;11.00;66.80
40622;DHT22;26324;52.040;11.528;2023-12-28T14:55:30;10.90;66.80
40622;DHT22;26324;52.040;11.528;2023-12-28T14:57:57;10.90;66.90
40622;DHT22;26324;52.040;11.528;2023-12-28T15:00:27;10.80;67.50
40622;DHT22;26324;52.040;11.528;2023-12-28T15:02:54;10.70;67.50
40622;DHT22;26324;52.040;11.528;2023-12-28T15:05:21;10.70;67.70
40622;DHT22;26324;52.040;11.528;2023-12-28T15:07:49;10.50;68.50
40622;DHT22;26324;52.040;11.528;2023-12-28T15:10:16;10.40;68.70
40622;DHT22;26324;52.040;11.528;2023-12-28T15:12:45;10.40;69.30
40622;DHT22;26324;52.040;11.528;2023-12-28T15:15:12;10.20;69.50
40622;DHT22;26324;52.040;11.528;2023-12-28T15:17:41;10.20;69.40
40622;DHT22;26324;52.040;11.528;2023-12-28T15:20:10;10.20;69.80
40622;DHT22;26324;52.040;11.528;2023-12-28T15:22:38;10.10;70.30
40622;DHT22;26324;52.040;11.528;2023-12-28T15:25:06;10.00;70.80
40622;DHT22;26324;52.040;11.528;2023-12-28T15:27:33;9.80;71.50
40622;DHT22;26324;52.040;11.528;2023-12-28T15:30:05;9.80;72.00
40622;DHT22;26324;52.040;11.528;2023-12-28T15:32:33;9.60;72.50
40622;DHT22;26324;52.040;11.528;2023-12-28T15:35:01;9.60;73.00